createdAt,value
2024-01-30T00:00:43.001Z,13.47
2024-01-30T00:03:10.338Z,14.03
2024-01-30T00:05:50.060Z,12.13
2024-01-30T00:08:20.865Z,11.67
2024-01-30T00:10:50.551Z,11.27
2024-01-30T00:13:20.638Z,11.03
2024-01-30T00:15:48.383Z,13.63
2024-01-30T00:18:15.835Z,16.27
2024-01-30T00:20:50.264Z,11.60
2024-01-30T00:23:17.532Z,13.20
2024-01-30T00:25:48.164Z,10.63
2024-01-30T00:28:17.820Z,12.47
2024-01-30T00:30:47.126Z,11.47
2024-01-30T00:33:17.543Z,14.27
2024-01-30T00:35:47.304Z,11.63
2024-01-30T00:38:17.525Z,12.70
2024-01-30T00:40:47.362Z,16.57
2024-01-30T00:43:17.892Z,13.83
2024-01-30T00:46:04.735Z,12.63
2024-01-30T00:48:34.193Z,13.53
2024-01-30T00:51:10.379Z,10.93
2024-01-30T00:53:37.701Z,10.10
2024-01-30T00:56:05.319Z,11.20
2024-01-30T00:58:32.560Z,12.97
2024-01-30T01:00:59.971Z,10.17
2024-01-30T01:03:27.331Z,11.47
2024-01-30T01:05:57.139Z,13.43
2024-01-30T01:08:24.306Z,10.47
2024-01-30T01:10:53.825Z,13.03
2024-01-30T01:13:21.296Z,12.90
2024-01-30T01:15:48.695Z,11.10
2024-01-30T01:18:20.158Z,12.50
2024-01-30T01:21:11.290Z,13.60
2024-01-30T01:23:39.724Z,10.27
2024-01-30T01:26:30.211Z,15.40
2024-01-30T01:28:57.369Z,14.17
2024-01-30T01:31:26.204Z,16.60
2024-01-30T01:33:53.600Z,12.10
2024-01-30T01:36:21.996Z,12.07
2024-01-30T01:39:06.854Z,12.73
2024-01-30T01:41:46.135Z,10.57
2024-01-30T01:44:17.676Z,15.87
2024-01-30T01:46:45.488Z,14.60
2024-01-30T01:49:24.344Z,10.07
2024-01-30T01:52:01.374Z,10.73
2024-01-30T01:54:31.257Z,10.33
2024-01-30T01:56:58.453Z,10.00
2024-01-30T01:59:26.398Z,11.60
2024-01-30T02:01:55.624Z,13.47
2024-01-30T02:04:22.894Z,13.23
2024-01-30T02:06:52.816Z,11.80
2024-01-30T02:09:20.190Z,14.47
2024-01-30T02:11:47.412Z,10.47
2024-01-30T02:14:15.670Z,14.73
2024-01-30T02:16:42.961Z,13.00
2024-01-30T02:19:10.352Z,12.47
2024-01-30T02:21:37.543Z,15.20
2024-01-30T02:24:06.058Z,15.57
2024-01-30T02:26:33.103Z,12.90
2024-01-30T02:29:00.264Z,13.83
2024-01-30T02:31:27.835Z,11.43
2024-01-30T02:33:55.137Z,13.07
2024-01-30T02:36:22.509Z,15.10
2024-01-30T02:38:51.369Z,12.60
2024-01-30T02:41:19.540Z,13.17
2024-01-30T02:43:46.648Z,12.60
2024-01-30T02:46:13.732Z,14.10
2024-01-30T02:48:40.989Z,15.37
2024-01-30T02:51:12.960Z,12.70
2024-01-30T02:53:40.042Z,16.47
2024-01-30T02:56:10.806Z,12.63
2024-01-30T02:58:38.661Z,13.80
2024-01-30T03:01:07.870Z,16.37
2024-01-30T03:03:38.198Z,14.70
2024-01-30T03:06:51.728Z,14.03
2024-01-30T03:09:19.334Z,12.23
2024-01-30T03:12:28.017Z,12.97
2024-01-30T03:14:55.070Z,14.10
2024-01-30T03:17:22.155Z,13.00
2024-01-30T03:19:49.497Z,11.93
2024-01-30T03:22:18.142Z,15.20
2024-01-30T03:24:48.191Z,17.80
2024-01-30T03:27:16.174Z,16.93
2024-01-30T03:29:47.892Z,12.70
2024-01-30T03:32:15.077Z,14.10
2024-01-30T03:34:43.322Z,15.37
2024-01-30T03:37:12.065Z,11.67
2024-01-30T03:39:39.262Z,14.77
2024-01-30T03:42:06.478Z,11.33
2024-01-30T03:44:39.426Z,13.50
2024-01-30T03:47:17.559Z,11.07
2024-01-30T03:49:44.765Z,12.13
2024-01-30T03:52:11.895Z,15.03
2024-01-30T03:54:39.181Z,15.83
2024-01-30T03:57:06.942Z,11.23
2024-01-30T03:59:34.018Z,13.47
2024-01-30T04:02:01.643Z,16.73
2024-01-30T04:04:28.870Z,12.67
2024-01-30T04:06:56.037Z,14.57
2024-01-30T04:09:23.160Z,12.20
2024-01-30T04:11:53.832Z,13.20
2024-01-30T04:14:20.917Z,14.33
2024-01-30T04:16:49.012Z,14.47
2024-01-30T04:19:17.204Z,12.40
2024-01-30T04:21:45.443Z,12.47
2024-01-30T04:24:13.946Z,12.13
2024-01-30T04:26:41.122Z,11.13
2024-01-30T04:29:08.319Z,13.93
2024-01-30T04:31:40.538Z,12.63
2024-01-30T04:34:08.736Z,12.63
2024-01-30T04:36:38.384Z,11.73
2024-01-30T04:39:07.549Z,13.83
2024-01-30T04:41:35.066Z,13.40
2024-01-30T04:44:02.264Z,13.73
2024-01-30T04:46:35.737Z,14.03
2024-01-30T04:49:03.002Z,16.13
2024-01-30T04:52:09.831Z,14.73
2024-01-30T04:54:37.208Z,14.57
2024-01-30T04:57:22.488Z,11.03
2024-01-30T04:59:49.622Z,13.97
2024-01-30T05:02:17.826Z,12.10
2024-01-30T05:04:45.069Z,10.50
2024-01-30T05:07:12.451Z,13.27
2024-01-30T05:09:39.672Z,13.07
2024-01-30T05:12:08.671Z,11.63
2024-01-30T05:14:53.386Z,10.97
2024-01-30T05:17:51.759Z,11.63
2024-01-30T05:20:29.890Z,13.47
2024-01-30T05:22:57.340Z,10.27
2024-01-30T05:25:24.808Z,15.50
2024-01-30T05:27:51.960Z,11.73
2024-01-30T05:30:18.992Z,12.27
2024-01-30T05:32:46.320Z,12.03
2024-01-30T05:35:13.584Z,14.07
2024-01-30T05:37:40.835Z,18.63
2024-01-30T05:40:09.171Z,11.60
2024-01-30T05:42:36.289Z,12.33
2024-01-30T05:45:28.659Z,14.77
2024-01-30T05:48:05.777Z,12.10
2024-01-30T05:50:43.723Z,14.47
2024-01-30T05:53:13.184Z,15.60
2024-01-30T05:55:43.573Z,13.67
2024-01-30T05:58:12.853Z,11.00
2024-01-30T06:00:56.563Z,14.07
2024-01-30T06:03:23.660Z,12.43
2024-01-30T06:05:50.728Z,16.87
2024-01-30T06:08:25.798Z,12.40
2024-01-30T06:10:53.280Z,17.20
2024-01-30T06:13:20.938Z,12.50
2024-01-30T06:15:48.034Z,12.17
2024-01-30T06:18:15.132Z,12.90
2024-01-30T06:20:42.326Z,13.10
2024-01-30T06:23:09.515Z,13.90
2024-01-30T06:25:36.534Z,11.83
2024-01-30T06:28:03.595Z,13.70
2024-01-30T06:30:31.020Z,12.30
2024-01-30T06:32:59.159Z,14.10
2024-01-30T06:35:29.939Z,10.97
2024-01-30T06:38:50.443Z,12.63
2024-01-30T06:41:17.577Z,13.90
2024-01-30T06:43:58.114Z,12.10
2024-01-30T06:46:25.255Z,15.33
2024-01-30T06:48:52.385Z,13.07
2024-01-30T06:51:19.518Z,13.10
2024-01-30T06:53:46.473Z,13.53
2024-01-30T06:56:13.729Z,11.70
2024-01-30T06:58:40.899Z,15.70
2024-01-30T07:01:19.467Z,12.17
2024-01-30T07:03:53.825Z,16.20
2024-01-30T07:06:22.070Z,12.93
2024-01-30T07:08:50.600Z,14.70
2024-01-30T07:11:23.365Z,12.87
2024-01-30T07:13:52.166Z,14.13
2024-01-30T07:16:19.315Z,13.53
2024-01-30T07:18:46.736Z,13.90
2024-01-30T07:21:13.768Z,15.93
2024-01-30T07:23:40.942Z,13.93
2024-01-30T07:26:07.980Z,16.80
2024-01-30T07:28:35.756Z,17.60
2024-01-30T07:31:03.320Z,15.27
2024-01-30T07:33:30.314Z,16.33
2024-01-30T07:35:57.691Z,12.13
2024-01-30T07:38:26.751Z,15.57
2024-01-30T07:40:53.910Z,12.07
2024-01-30T07:43:21.548Z,16.60
2024-01-30T07:45:48.739Z,17.37
2024-01-30T07:48:15.893Z,17.70
2024-01-30T07:50:43.408Z,18.27
2024-01-30T07:53:11.558Z,20.43
2024-01-30T07:55:38.687Z,21.60
2024-01-30T07:58:06.038Z,14.77
2024-01-30T08:00:33.380Z,17.80
2024-01-30T08:03:00.637Z,18.60
2024-01-30T08:05:28.019Z,14.60
2024-01-30T08:07:55.124Z,19.23
2024-01-30T08:10:23.343Z,14.90
2024-01-30T08:12:50.471Z,17.60
2024-01-30T08:15:17.633Z,17.37
2024-01-30T08:17:45.976Z,20.57
2024-01-30T08:21:12.425Z,17.50
2024-01-30T08:23:43.955Z,16.50
2024-01-30T08:26:39.784Z,20.07
2024-01-30T08:29:07.115Z,19.50
2024-01-30T08:31:34.552Z,18.30
2024-01-30T08:34:01.787Z,20.17
2024-01-30T08:36:29.143Z,24.47
2024-01-30T08:38:59.209Z,19.50
2024-01-30T08:41:29.004Z,20.80
2024-01-30T08:43:56.069Z,19.60
2024-01-30T08:46:23.129Z,25.43
2024-01-30T08:48:58.239Z,18.90
2024-01-30T08:51:27.358Z,23.37
2024-01-30T08:53:55.243Z,22.10
2024-01-30T08:56:22.379Z,21.83
2024-01-30T08:58:49.590Z,26.43
2024-01-30T09:01:16.876Z,24.17
2024-01-30T09:03:46.831Z,22.77
2024-01-30T09:06:14.196Z,20.57
2024-01-30T09:08:41.179Z,17.40
2024-01-30T09:11:14.007Z,25.67
2024-01-30T09:13:41.138Z,17.43
2024-01-30T09:16:08.924Z,21.87
2024-01-30T09:18:36.029Z,17.87
2024-01-30T09:21:03.177Z,20.57
2024-01-30T09:23:30.238Z,24.13
2024-01-30T09:25:57.450Z,24.60
2024-01-30T09:28:27.550Z,16.60
2024-01-30T09:30:54.985Z,11.87
2024-01-30T09:33:22.153Z,12.47
2024-01-30T09:35:49.257Z,8.83
2024-01-30T09:38:16.414Z,9.13
2024-01-30T09:40:43.861Z,11.37
2024-01-30T09:43:18.260Z,7.63
2024-01-30T09:45:48.360Z,4.87
2024-01-30T09:48:16.510Z,10.70
2024-01-30T09:50:44.006Z,5.43
2024-01-30T09:53:21.137Z,7.87
2024-01-30T09:55:48.786Z,4.80
2024-01-30T09:58:18.379Z,9.73
2024-01-30T10:00:45.561Z,9.17
2024-01-30T10:04:05.592Z,6.03
2024-01-30T10:06:32.679Z,2.57
2024-01-30T10:09:10.543Z,4.90
2024-01-30T10:11:38.088Z,2.70
2024-01-30T10:14:05.291Z,2.90
2024-01-30T10:16:32.537Z,3.33
2024-01-30T10:18:59.751Z,1.43
2024-01-30T10:21:26.878Z,2.80
2024-01-30T10:23:54.134Z,3.93
2024-01-30T10:26:22.412Z,6.80
2024-01-30T10:28:50.384Z,5.27
2024-01-30T10:31:20.469Z,4.53
2024-01-30T10:33:50.302Z,5.27
2024-01-30T10:36:21.096Z,11.33
2024-01-30T10:38:52.362Z,3.77
2024-01-30T10:41:27.783Z,9.47
2024-01-30T10:44:10.792Z,3.70
2024-01-30T10:46:40.700Z,4.13
2024-01-30T10:49:08.205Z,6.57
2024-01-30T10:51:36.751Z,3.80
2024-01-30T10:54:06.400Z,5.73
2024-01-30T10:56:34.923Z,4.10
2024-01-30T10:59:02.368Z,5.77
2024-01-30T11:01:30.054Z,5.83
2024-01-30T11:03:58.036Z,8.40
2024-01-30T11:06:27.016Z,4.60
2024-01-30T11:09:13.413Z,2.93
2024-01-30T11:12:02.918Z,8.83
2024-01-30T11:14:33.362Z,5.77
2024-01-30T11:17:01.211Z,3.30
2024-01-30T11:19:31.742Z,6.10
2024-01-30T11:21:59.247Z,4.17
2024-01-30T11:24:27.372Z,4.30
2024-01-30T11:26:59.365Z,8.30
2024-01-30T11:29:28.440Z,4.27
2024-01-30T11:32:00.362Z,3.73
2024-01-30T11:34:27.705Z,9.40
2024-01-30T11:37:01.027Z,3.57
2024-01-30T11:39:28.588Z,6.03
2024-01-30T11:41:56.537Z,5.47
2024-01-30T11:45:05.226Z,3.80
2024-01-30T11:47:32.365Z,5.83
2024-01-30T11:50:43.884Z,4.53
2024-01-30T11:53:11.270Z,4.87
2024-01-30T11:55:39.003Z,3.60
2024-01-30T11:58:06.605Z,4.37
2024-01-30T12:00:34.936Z,6.30
2024-01-30T12:03:04.194Z,9.40
2024-01-30T12:05:31.689Z,5.63
2024-01-30T12:08:01.179Z,4.33
2024-01-30T12:10:29.339Z,3.03
2024-01-30T12:12:56.943Z,3.13
2024-01-30T12:15:26.051Z,5.77
2024-01-30T12:17:53.633Z,5.13
2024-01-30T12:20:38.377Z,5.30
2024-01-30T12:23:05.693Z,4.67
2024-01-30T12:25:33.112Z,3.27
2024-01-30T12:28:00.476Z,5.90
2024-01-30T12:30:40.422Z,4.57
2024-01-30T12:33:09.700Z,6.33
2024-01-30T12:35:40.011Z,5.93
2024-01-30T12:38:13.579Z,5.30
2024-01-30T12:40:41.992Z,3.33
2024-01-30T12:43:09.683Z,4.40
2024-01-30T12:45:37.903Z,3.27
2024-01-30T12:48:05.554Z,7.20
2024-01-30T12:50:32.683Z,4.77
2024-01-30T12:53:00.076Z,7.87
2024-01-30T12:55:29.676Z,4.00
2024-01-30T12:57:57.117Z,7.63
2024-01-30T13:00:24.597Z,5.20
2024-01-30T13:02:51.738Z,7.30
2024-01-30T13:05:19.053Z,5.13
2024-01-30T13:07:46.280Z,6.17
2024-01-30T13:10:13.472Z,5.00
2024-01-30T13:12:40.910Z,6.07
2024-01-30T13:15:09.047Z,9.37
2024-01-30T13:17:37.415Z,6.40
2024-01-30T13:20:10.876Z,6.73
2024-01-30T13:22:40.437Z,7.50
2024-01-30T13:25:08.818Z,4.73
2024-01-30T13:27:52.406Z,3.80
2024-01-30T13:30:19.615Z,5.47
2024-01-30T13:32:55.698Z,21.23
2024-01-30T13:35:22.819Z,13.77
2024-01-30T13:37:50.085Z,6.33
2024-01-30T13:40:17.845Z,6.27
2024-01-30T13:42:44.987Z,8.40
2024-01-30T13:45:12.414Z,5.57
2024-01-30T13:47:40.244Z,9.27
2024-01-30T13:50:07.694Z,12.73
2024-01-30T13:52:41.496Z,8.37
2024-01-30T13:55:12.125Z,6.97
2024-01-30T13:57:39.647Z,6.53
2024-01-30T14:00:08.178Z,4.07
2024-01-30T14:02:35.617Z,9.53
2024-01-30T14:05:02.913Z,5.43
2024-01-30T14:07:45.065Z,5.70
2024-01-30T14:10:14.523Z,7.23
2024-01-30T14:12:45.242Z,8.00
2024-01-30T14:15:22.777Z,3.97
2024-01-30T14:17:55.277Z,7.27
2024-01-30T14:20:28.969Z,7.80
2024-01-30T14:23:05.074Z,4.97
2024-01-30T14:25:32.163Z,5.10
2024-01-30T14:27:59.348Z,6.53
2024-01-30T14:30:26.362Z,8.83
2024-01-30T14:32:53.584Z,5.57
2024-01-30T14:35:21.831Z,6.43
2024-01-30T14:37:49.132Z,6.03
2024-01-30T14:40:16.195Z,7.20
2024-01-30T14:42:43.288Z,12.10
2024-01-30T14:45:12.765Z,13.97
2024-01-30T14:47:40.176Z,14.43
2024-01-30T14:50:08.980Z,7.53
2024-01-30T14:52:38.603Z,5.97
2024-01-30T14:55:06.676Z,5.50
2024-01-30T14:57:35.765Z,5.00
2024-01-30T15:00:03.558Z,7.40
2024-01-30T15:02:30.606Z,7.13
2024-01-30T15:04:57.859Z,8.30
2024-01-30T15:07:33.000Z,15.07
2024-01-30T15:10:48.763Z,12.63
2024-01-30T15:13:17.711Z,7.13
2024-01-30T15:15:52.199Z,8.97
2024-01-30T15:18:19.339Z,6.27
2024-01-30T15:20:46.378Z,7.87
2024-01-30T15:23:13.481Z,8.40
2024-01-30T15:25:40.623Z,11.60
2024-01-30T15:28:07.805Z,9.30
2024-01-30T15:30:34.855Z,12.40
2024-01-30T15:33:02.921Z,8.30
2024-01-30T15:35:29.993Z,9.53
2024-01-30T15:37:57.049Z,7.93
2024-01-30T15:40:24.141Z,8.97
2024-01-30T15:42:51.233Z,10.03
2024-01-30T15:45:18.227Z,9.83
2024-01-30T15:47:45.298Z,11.13
2024-01-30T15:50:13.436Z,8.77
2024-01-30T15:52:52.688Z,11.93
2024-01-30T15:55:53.911Z,11.23
2024-01-30T15:58:21.036Z,16.27
2024-01-30T16:00:48.162Z,14.67
2024-01-30T16:03:15.232Z,8.90
2024-01-30T16:05:42.821Z,11.03
2024-01-30T16:08:10.892Z,18.20
2024-01-30T16:10:39.367Z,11.13
2024-01-30T16:13:24.917Z,17.00
2024-01-30T16:15:51.993Z,7.70
2024-01-30T16:18:19.187Z,11.10
2024-01-30T16:20:46.351Z,9.77
2024-01-30T16:23:13.464Z,10.83
2024-01-30T16:25:40.507Z,9.37
2024-01-30T16:28:07.671Z,15.73
2024-01-30T16:30:38.521Z,10.47
2024-01-30T16:33:09.489Z,7.73
2024-01-30T16:35:45.567Z,8.00
2024-01-30T16:38:17.633Z,12.07
2024-01-30T16:40:44.934Z,8.07
2024-01-30T16:43:13.516Z,7.13
2024-01-30T16:45:41.307Z,8.90
2024-01-30T16:48:08.781Z,10.07
2024-01-30T16:50:39.063Z,8.60
2024-01-30T16:53:44.447Z,7.83
2024-01-30T16:56:22.422Z,7.70
2024-01-30T16:58:49.604Z,12.20
2024-01-30T17:01:16.713Z,12.30
2024-01-30T17:03:44.935Z,9.40
2024-01-30T17:06:13.815Z,9.10
2024-01-30T17:08:41.415Z,8.33
2024-01-30T17:11:09.921Z,7.83
2024-01-30T17:13:40.485Z,5.83
2024-01-30T17:16:08.191Z,8.60
2024-01-30T17:18:36.744Z,7.70
2024-01-30T17:21:04.066Z,9.07
2024-01-30T17:23:34.679Z,10.73
2024-01-30T17:26:02.330Z,11.13
2024-01-30T17:28:29.585Z,11.67
2024-01-30T17:30:56.966Z,10.60
2024-01-30T17:33:24.693Z,10.23
2024-01-30T17:35:51.834Z,13.20
2024-01-30T17:38:19.004Z,6.47
2024-01-30T17:41:12.980Z,9.13
2024-01-30T17:43:43.087Z,7.73
2024-01-30T17:46:10.562Z,9.87
2024-01-30T17:48:37.956Z,9.00
2024-01-30T17:51:05.257Z,8.57
2024-01-30T17:53:33.355Z,9.07
2024-01-30T17:56:06.598Z,94.67
2024-01-30T17:58:33.927Z,27.43
2024-01-30T18:01:01.740Z,21.80
2024-01-30T18:03:29.076Z,18.40
2024-01-30T18:05:56.533Z,9.93
2024-01-30T18:08:26.677Z,12.57
2024-01-30T18:10:55.468Z,9.47
2024-01-30T18:13:22.759Z,10.53
2024-01-30T18:15:49.977Z,11.90
2024-01-30T18:18:17.275Z,9.33
2024-01-30T18:20:44.261Z,12.00
2024-01-30T18:23:11.387Z,13.93
2024-01-30T18:25:38.553Z,9.77
2024-01-30T18:28:06.912Z,12.70
2024-01-30T18:30:34.093Z,9.53
2024-01-30T18:33:04.069Z,12.80
2024-01-30T18:36:14.112Z,10.60
2024-01-30T18:38:57.227Z,9.37
2024-01-30T18:41:24.319Z,19.97
2024-01-30T18:43:51.461Z,19.77
2024-01-30T18:46:23.232Z,18.47
2024-01-30T18:48:50.836Z,15.57
2024-01-30T18:51:18.325Z,14.10
2024-01-30T18:53:45.610Z,16.10
2024-01-30T18:56:14.309Z,13.33
2024-01-30T18:58:41.532Z,12.60
2024-01-30T19:01:09.740Z,11.40
2024-01-30T19:03:37.026Z,10.23
2024-01-30T19:06:04.638Z,11.93
2024-01-30T19:08:31.919Z,7.20
2024-01-30T19:10:59.064Z,10.57
2024-01-30T19:13:26.156Z,14.97
2024-01-30T19:15:53.528Z,16.40
2024-01-30T19:18:20.638Z,21.00
2024-01-30T19:20:49.258Z,33.90
2024-01-30T19:23:18.879Z,36.40
2024-01-30T19:25:48.814Z,28.00
2024-01-30T19:28:36.472Z,25.33
2024-01-30T19:31:06.629Z,27.93
2024-01-30T19:33:33.815Z,12.10
2024-01-30T19:36:03.376Z,16.87
2024-01-30T19:38:30.543Z,11.33
2024-01-30T19:40:58.926Z,8.40
2024-01-30T19:43:26.615Z,9.20
2024-01-30T19:45:54.270Z,10.80
2024-01-30T19:48:21.982Z,9.90
2024-01-30T19:50:49.138Z,14.73
2024-01-30T19:53:16.351Z,17.63
2024-01-30T19:55:43.500Z,14.57
2024-01-30T19:58:10.599Z,15.67
2024-01-30T20:00:38.265Z,16.97
2024-01-30T20:03:05.602Z,14.97
2024-01-30T20:05:32.993Z,35.97
2024-01-30T20:08:00.313Z,14.23
2024-01-30T20:10:27.469Z,13.37
2024-01-30T20:12:56.377Z,22.70
2024-01-30T20:15:24.182Z,21.73
2024-01-30T20:18:33.302Z,16.60
2024-01-30T20:21:12.571Z,13.40
2024-01-30T20:23:39.933Z,15.87
2024-01-30T20:26:07.080Z,13.97
2024-01-30T20:28:34.166Z,15.30
2024-01-30T20:31:01.295Z,13.97
2024-01-30T20:33:28.502Z,12.10
2024-01-30T20:35:55.626Z,14.67
2024-01-30T20:38:22.832Z,17.47
2024-01-30T20:40:49.996Z,13.93
2024-01-30T20:43:17.128Z,18.87
2024-01-30T20:45:44.120Z,14.63
2024-01-30T20:48:11.364Z,14.07
2024-01-30T20:50:38.401Z,14.50
2024-01-30T20:53:05.506Z,15.23
2024-01-30T20:55:32.800Z,13.13
2024-01-30T20:58:00.112Z,14.87
2024-01-30T21:00:27.622Z,14.17
2024-01-30T21:02:54.677Z,14.93
2024-01-30T21:05:24.168Z,13.23
2024-01-30T21:07:54.388Z,15.50
2024-01-30T21:10:22.142Z,12.13
2024-01-30T21:12:57.930Z,16.53
2024-01-30T21:15:36.860Z,12.63
2024-01-30T21:18:06.767Z,19.07
2024-01-30T21:20:34.275Z,15.43
2024-01-30T21:23:02.013Z,19.30
2024-01-30T21:25:29.491Z,20.87
2024-01-30T21:27:56.683Z,16.60
2024-01-30T21:30:23.735Z,16.53
2024-01-30T21:32:50.951Z,16.87
2024-01-30T21:35:18.076Z,16.57
2024-01-30T21:37:45.275Z,15.57
2024-01-30T21:40:12.507Z,313.97
2024-01-30T21:42:40.062Z,255.43
2024-01-30T21:45:08.860Z,347.10
2024-01-30T21:47:35.933Z,303.70
2024-01-30T21:50:04.548Z,58.03
2024-01-30T21:52:33.030Z,25.40
2024-01-30T21:55:00.271Z,22.53
2024-01-30T21:57:28.410Z,23.60
2024-01-30T22:00:33.365Z,20.83
2024-01-30T22:03:00.612Z,21.57
2024-01-30T22:05:28.685Z,20.67
2024-01-30T22:07:55.851Z,21.03
2024-01-30T22:10:22.977Z,20.23
2024-01-30T22:12:50.645Z,16.57
2024-01-30T22:15:19.284Z,21.27
2024-01-30T22:17:46.343Z,39.03
2024-01-30T22:20:13.538Z,44.33
2024-01-30T22:22:40.942Z,38.67
2024-01-30T22:25:08.628Z,40.87
2024-01-30T22:27:35.817Z,30.50
2024-01-30T22:30:03.024Z,24.43
2024-01-30T22:32:30.241Z,22.17
2024-01-30T22:34:57.469Z,24.43
2024-01-30T22:37:24.591Z,22.40
2024-01-30T22:39:51.617Z,24.10
2024-01-30T22:42:18.688Z,21.63
2024-01-30T22:44:45.740Z,17.70
2024-01-30T22:47:12.750Z,19.67
2024-01-30T22:49:39.765Z,18.07
2024-01-30T22:52:07.165Z,18.30
2024-01-30T22:54:34.145Z,18.60
2024-01-30T22:57:01.261Z,21.77
2024-01-30T22:59:37.125Z,24.23
2024-01-30T23:02:08.289Z,22.17
2024-01-30T23:04:35.729Z,20.67
2024-01-30T23:07:02.973Z,23.30
2024-01-30T23:09:30.095Z,19.60
2024-01-30T23:11:57.095Z,24.77
2024-01-30T23:14:24.402Z,22.20
2024-01-30T23:16:51.450Z,23.27
2024-01-30T23:19:18.901Z,21.40
2024-01-30T23:21:46.133Z,18.73
2024-01-30T23:24:13.213Z,21.93
2024-01-30T23:26:43.034Z,22.17
2024-01-30T23:29:09.997Z,25.80
2024-01-30T23:31:44.394Z,20.67
2024-01-30T23:34:13.319Z,19.30
2024-01-30T23:36:43.321Z,22.17
2024-01-30T23:39:14.176Z,27.03
2024-01-30T23:42:21.924Z,20.13
2024-01-30T23:44:49.098Z,24.13
2024-01-30T23:47:26.671Z,20.83
2024-01-30T23:49:53.784Z,23.77
2024-01-30T23:52:22.112Z,24.27
2024-01-30T23:54:49.243Z,24.30
2024-01-30T23:57:16.434Z,24.77
2024-01-30T23:59:43.417Z,25.97
